Waller, TX (77484)

11:41 PM CDT on September 21, 2014 (GMT -0500)
Prairie Dawn Farm, Waller, TX | Change Station
CLOSE
Current Station
Personal Weather Station
Location: Waller, TX
Elevation: 285 ft
Nearby Weather Stations

Elev 285 ft 30.09 °N, 95.93 °W | Updated 1 minute ago

Clear
Clear
74.3 °F
Feels Like 74 °F
N
0.0
Wind Variable Wind from NNE
Gusts 0.0 mph

Today
High -- | Low -- °F
--% Chance of Precip.
Yesterday
High -- | Low -- °F
Precip. -- in
7:11 AM 7:21 PM
Waning Crescent, 4% visible
Pressure 30.05 in
Visibility 10.0 miles
Clouds Clear
Heat Index 74 °F
Dew Point 69 °F
Humidity 85%
Rainfall 0.00 in
Snow Depth Not available.
UV 0.0 out of 12
Pollen 9.70 out of 12
Ozone Good
PM2.5 Moderate
Flu Activity Not available.
METAR KTME 220435Z AUTO 35003KT 10SM CLR 24/22 A3005 RMK AO2

More Conditions Fewer Conditions

Pressure 30.05 in
Visibility 10.0 miles
Clouds Clear
Heat Index 74 °F
Dew Point 69 °F
Humidity 85%
Rainfall 0.00 in
Snow Depth Not available.
UV 0.0 out of 12
Pollen 9.70 out of 12
Ozone Good
PM2.5 Moderate
Flu Activity Not available.
METAR KTME 220435Z AUTO 35003KT 10SM CLR 24/22 A3005 RMK AO2

More Conditions Fewer Conditions

10-Day Weather Forecast

Almanac

Astronomy

Sep. 21, 2014 Rise Set
Actual Time 7:11 AM CDT 7:21 PM CDT
Civil Twilight 6:47 AM CDT 7:45 PM CDT
Nautical Twilight 6:19 AM CDT 8:13 PM CDT
Astronomical Twilight 5:51 AM CDT 8:41 PM CDT
Moon 4:54 AM CDT (9/21) 5:51 PM CDT (9/21)
Length of Visible Light 12h 57m
Length of Day
12h 09m
Tomorrow will be 1m 48s shorter.
Waning Crescent, 4% of the Moon is Illuminated
Sep 22
Waning Crescent
Sep 24
New
Oct 1
First Quarter
Oct 8
Full
Oct 15
Last Quarter

Yesterday's Extremes

State Highs State Lows

Community

WunderPhotos

Upload Photos

1,755,391 photos uploaded!

Nearby

Air Quality

  Air Quality AQ Index Pollutant
Yesterday Unhealthy
OZONE
Yesterday Good
PM2.5
Current Moderate
PM2.5
Current Good
OZONE
Sunday Moderate
OZONE
Sunday Good
PM10
Monday Unhealthy for Sensitive Groups
OZONE
Monday Good
PM10
Tuesday Moderate
OZONE
Tuesday Good
PM10

Snow Depth

Station Depth Elevation
No new snow has been reported.

Earthquake Activity

City Distance Mag. Time & Date
No recent earthquake activity has been reported nearby.
Minimum magnitude displayed is 2.5.

Coastal Water Temperatures

Place Temperature
No Stations Reporting

Nearby Weather Stations